Time;durP1;ratioP1;P1;durP2;ratioP2;P2;SDS_P1;SDS_P2;PMS_P1;PMS_P2;Temp;Humidity;BMP_temperature;BMP_pressure;BME280_temperature;BME280_humidity;BME280_pressure;Samples;Min_cycle;Max_cycle;Signal;HPM_P1;HPM_P2
2021/10/08 00:00:08;;;;;;;13.25;7.80;;;;;;;;;;5116364;28;20035;-64
2021/10/08 00:02:41;;;;;;;16.00;8.48;;;;;;;;;;5116250;28;20042;-63
2021/10/08 00:05:07;;;;;;;14.38;7.63;;;;;;;;;;5116275;28;20032;-63
2021/10/08 00:07:32;;;;;;;14.38;7.93;;;;;;;;;;5115895;28;20122;-63
2021/10/08 00:09:58;;;;;;;15.48;7.97;;;;;;;;;;5115699;28;20184;-63
2021/10/08 00:12:23;;;;;;;12.02;7.40;;;;;;;;;;5115311;28;20019;-63
2021/10/08 00:14:49;;;;;;;15.50;7.78;;;;;;;;;;5115351;28;20376;-63
2021/10/08 00:17:15;;;;;;;12.43;7.45;;;;;;;;;;5116040;28;20089;-63
2021/10/08 00:19:40;;;;;;;13.32;8.00;;;;;;;;;;5115930;28;20168;-63
2021/10/08 00:22:05;;;;;;;13.23;7.10;;;;;;;;;;5115992;28;20019;-63
2021/10/08 00:24:31;;;;;;;17.75;7.18;;;;;;;;;;5114728;28;20101;-63
2021/10/08 00:26:57;;;;;;;15.93;7.40;;;;;;;;;;5115988;28;20209;-63
2021/10/08 00:29:22;;;;;;;14.65;7.78;;;;;;;;;;5115097;28;20043;-63
2021/10/08 00:31:48;;;;;;;19.67;7.80;;;;;;;;;;5097418;28;20027;-64
2021/10/08 00:34:16;;;;;;;13.43;6.90;;;;;;;;;;5115385;28;20040;-65
2021/10/08 00:36:42;;;;;;;14.57;7.32;;;;;;;;;;5113501;28;20028;-63
2021/10/08 00:39:08;;;;;;;15.13;7.60;;;;;;;;;;5114941;28;20031;-63
2021/10/08 00:41:34;;;;;;;13.80;7.47;;;;;;;;;;5097295;28;20076;-63
2021/10/08 00:43:59;;;;;;;14.68;7.18;;;;;;;;;;5097111;28;20042;-63
2021/10/08 00:46:25;;;;;;;14.95;8.10;;;;;;;;;;5097363;28;20098;-63
2021/10/08 00:48:51;;;;;;;16.85;8.25;;;;;;;;;;5115127;28;20035;-64
2021/10/08 00:51:22;;;;;;;13.15;8.05;;;;;;;;;;5096221;28;20391;-63
2021/10/08 00:53:48;;;;;;;17.80;8.43;;;;;;;;;;5115332;28;20477;-63
2021/10/08 00:56:16;;;;;;;14.18;8.10;;;;;;;;;;5096974;28;20024;-63
2021/10/08 00:58:42;;;;;;;12.55;7.35;;;;;;;;;;5096643;28;20036;-62
2021/10/08 01:01:09;;;;;;;14.48;7.72;;;;;;;;;;5114833;28;20019;-63
2021/10/08 01:03:34;;;;;;;13.48;8.07;;;;;;;;;;5115147;28;20040;-63
2021/10/08 01:06:00;;;;;;;14.18;7.78;;;;;;;;;;5114816;28;20039;-63
2021/10/08 01:08:26;;;;;;;15.98;7.72;;;;;;;;;;5114163;28;20396;-63
2021/10/08 01:10:51;;;;;;;12.98;7.88;;;;;;;;;;5096379;28;20494;-63
2021/10/08 01:13:18;;;;;;;12.48;7.68;;;;;;;;;;5096395;28;20062;-63
2021/10/08 01:15:47;;;;;;;17.17;7.68;;;;;;;;;;5095864;28;20467;-63
2021/10/08 01:18:13;;;;;;;10.65;7.68;;;;;;;;;;5114568;28;20043;-63
2021/10/08 01:20:39;;;;;;;14.35;7.65;;;;;;;;;;5096516;28;20068;-63
2021/10/08 01:23:13;;;;;;;15.70;7.70;;;;;;;;;;5080691;28;20487;-63
2021/10/08 01:25:49;;;;;;;17.08;8.10;;;;;;;;;;5095797;28;20371;-63
2021/10/08 01:28:16;;;;;;;13.48;7.25;;;;;;;;;;5096462;28;20051;-64
2021/10/08 01:30:43;;;;;;;12.93;7.45;;;;;;;;;;5096033;28;20052;-63
2021/10/08 01:33:09;;;;;;;15.30;7.65;;;;;;;;;;5095685;28;20403;-64
2021/10/08 01:35:38;;;;;;;16.27;8.10;;;;;;;;;;5096546;28;20026;-63
2021/10/08 01:38:06;;;;;;;16.67;7.53;;;;;;;;;;5114023;28;20362;-63
2021/10/08 01:40:33;;;;;;;13.20;7.57;;;;;;;;;;5095809;28;20058;-63
2021/10/08 01:43:08;;;;;;;12.45;7.47;;;;;;;;;;5095851;28;20046;-63
2021/10/08 01:45:33;;;;;;;14.20;7.13;;;;;;;;;;5114314;28;20036;-63
2021/10/08 01:47:59;;;;;;;12.77;7.50;;;;;;;;;;5096231;28;20106;-64
2021/10/08 01:50:27;;;;;;;13.48;7.07;;;;;;;;;;5095564;28;20074;-64
2021/10/08 01:52:52;;;;;;;14.02;7.10;;;;;;;;;;5096023;28;20496;-64
2021/10/08 01:55:21;;;;;;;13.43;6.70;;;;;;;;;;5095706;28;20126;-64
2021/10/08 01:57:55;;;;;;;14.48;6.35;;;;;;;;;;5095582;28;20036;-64
2021/10/08 02:00:23;;;;;;;15.82;6.82;;;;;;;;;;5096040;28;20039;-64
2021/10/08 02:02:59;;;;;;;11.35;6.15;;;;;;;;;;5094826;28;20034;-65
2021/10/08 02:05:25;;;;;;;12.50;6.82;;;;;;;;;;5095862;28;20122;-64
2021/10/08 02:07:52;;;;;;;10.18;6.35;;;;;;;;;;5095899;28;20395;-64
2021/10/08 02:10:24;;;;;;;12.07;6.68;;;;;;;;;;5095709;28;20132;-64
2021/10/08 02:12:52;;;;;;;11.50;6.18;;;;;;;;;;5095819;28;20135;-64
2021/10/08 02:15:18;;;;;;;10.30;6.63;;;;;;;;;;5095634;28;20032;-63
2021/10/08 02:17:44;;;;;;;11.70;6.82;;;;;;;;;;5095392;28;20446;-64
2021/10/08 02:20:10;;;;;;;11.48;7.05;;;;;;;;;;5095589;28;20034;-63
2021/10/08 02:22:38;;;;;;;10.70;6.57;;;;;;;;;;5095559;28;20105;-63
2021/10/08 02:25:07;;;;;;;11.70;7.20;;;;;;;;;;5095608;28;20024;-63
2021/10/08 02:27:32;;;;;;;12.90;7.00;;;;;;;;;;5095292;28;20406;-63
2021/10/08 02:29:58;;;;;;;8.82;6.35;;;;;;;;;;5094626;28;20040;-63
2021/10/08 02:32:25;;;;;;;13.95;7.47;;;;;;;;;;5095129;28;20055;-63
2021/10/08 02:34:52;;;;;;;12.05;6.50;;;;;;;;;;5095549;28;20117;-63
2021/10/08 02:37:21;;;;;;;10.95;6.95;;;;;;;;;;5113915;28;20073;-64
2021/10/08 02:39:49;;;;;;;11.48;5.78;;;;;;;;;;5078557;28;20479;-64
2021/10/08 02:42:16;;;;;;;11.35;6.43;;;;;;;;;;5113903;28;20084;-64
2021/10/08 02:44:42;;;;;;;9.43;6.80;;;;;;;;;;5095463;28;20034;-64
2021/10/08 02:47:07;;;;;;;14.38;6.40;;;;;;;;;;5095356;28;20046;-63
2021/10/08 02:49:33;;;;;;;14.90;7.07;;;;;;;;;;5113646;28;20024;-60
2021/10/08 02:52:13;;;;;;;14.43;8.02;;;;;;;;;;5095350;28;20038;-60
2021/10/08 02:54:56;;;;;;;;;;;;;;;;;;5079369;28;20084;-60
2021/10/08 02:57:38;;;;;;;;;;;;;;;;;;5079195;28;19942;-61
2021/10/08 03:00:27;;;;;;;9.43;6.72;;;;;;;;;;5094442;28;20001;-60
2021/10/08 03:03:10;;;;;;;12.00;7.55;;;;;;;;;;5078946;28;20039;-60
2021/10/08 03:05:39;;;;;;;12.27;7.10;;;;;;;;;;5079076;28;20035;-60
2021/10/08 03:08:05;;;;;;;15.73;7.47;;;;;;;;;;5094988;28;20019;-60
2021/10/08 03:10:30;;;;;;;14.13;7.50;;;;;;;;;;5095344;28;20035;-60
2021/10/08 03:12:56;;;;;;;15.35;7.85;;;;;;;;;;5095071;28;20114;-60
2021/10/08 03:15:22;;;;;;;14.80;8.05;;;;;;;;;;5097746;28;20039;-60
2021/10/08 03:17:48;;;;;;;10.48;7.53;;;;;;;;;;5117022;28;20019;-60
2021/10/08 03:20:14;;;;;;;15.45;8.10;;;;;;;;;;5098741;28;20043;-60
2021/10/08 03:22:39;;;;;;;10.90;7.03;;;;;;;;;;5098316;28;20115;-61
2021/10/08 03:25:07;;;;;;;11.77;6.95;;;;;;;;;;5098549;28;20126;-61
2021/10/08 03:27:34;;;;;;;17.38;7.53;;;;;;;;;;5117132;28;20110;-60
2021/10/08 03:30:00;;;;;;;13.68;7.90;;;;;;;;;;5097875;28;20151;-61
2021/10/08 03:32:25;;;;;;;14.27;7.10;;;;;;;;;;5098563;28;20519;-61
2021/10/08 03:34:52;;;;;;;11.95;7.78;;;;;;;;;;5098172;28;20053;-60
2021/10/08 03:37:23;;;;;;;16.73;7.18;;;;;;;;;;5116411;28;20106;-60
2021/10/08 03:39:48;;;;;;;12.18;7.35;;;;;;;;;;5097964;28;20579;-60
2021/10/08 03:42:17;;;;;;;16.05;8.05;;;;;;;;;;5098104;28;20122;-60
2021/10/08 03:44:46;;;;;;;18.77;8.60;;;;;;;;;;5098076;28;20035;-60
2021/10/08 03:47:15;;;;;;;15.02;8.45;;;;;;;;;;5116670;28;20027;-60
2021/10/08 03:49:41;;;;;;;16.90;8.45;;;;;;;;;;5116397;28;20108;-61
2021/10/08 03:52:06;;;;;;;13.90;8.00;;;;;;;;;;5097895;28;20115;-61
2021/10/08 03:54:32;;;;;;;13.00;7.28;;;;;;;;;;5116365;28;20092;-61
2021/10/08 03:56:57;;;;;;;15.63;8.50;;;;;;;;;;5098048;28;20114;-61
2021/10/08 03:59:23;;;;;;;17.02;8.27;;;;;;;;;;5116133;28;20117;-60
2021/10/08 04:01:49;;;;;;;15.63;8.25;;;;;;;;;;5098004;28;20028;-60
2021/10/08 04:04:15;;;;;;;14.73;7.43;;;;;;;;;;5097657;28;20039;-60
2021/10/08 04:06:42;;;;;;;14.48;8.25;;;;;;;;;;5097543;28;20019;-60
2021/10/08 04:09:08;;;;;;;13.43;7.72;;;;;;;;;;5097577;28;20035;-60
2021/10/08 04:11:37;;;;;;;17.63;8.85;;;;;;;;;;5081006;28;20031;-60
2021/10/08 04:14:03;;;;;;;17.38;8.65;;;;;;;;;;5115627;28;20153;-61
2021/10/08 04:16:30;;;;;;;17.50;8.57;;;;;;;;;;5115063;28;20097;-61
2021/10/08 04:18:56;;;;;;;16.17;8.82;;;;;;;;;;5097866;28;20032;-60
2021/10/08 04:21:22;;;;;;;15.52;8.43;;;;;;;;;;5097417;28;20023;-60
2021/10/08 04:23:48;;;;;;;16.75;8.93;;;;;;;;;;5097291;28;20504;-60
2021/10/08 04:26:14;;;;;;;21.55;9.85;;;;;;;;;;5096606;28;20023;-60
2021/10/08 04:28:40;;;;;;;16.88;9.00;;;;;;;;;;5097124;28;20044;-60
2021/10/08 04:31:06;;;;;;;19.60;8.95;;;;;;;;;;5096871;28;20047;-60
2021/10/08 04:33:34;;;;;;;19.15;8.90;;;;;;;;;;5097132;28;20035;-60
2021/10/08 04:36:00;;;;;;;12.35;7.97;;;;;;;;;;5097129;28;20031;-60
2021/10/08 04:38:30;;;;;;;15.85;8.15;;;;;;;;;;5097003;28;20403;-60
2021/10/08 04:40:58;;;;;;;15.68;9.07;;;;;;;;;;5096788;28;20020;-60
2021/10/08 04:43:24;;;;;;;14.93;9.38;;;;;;;;;;5114950;28;20044;-60
2021/10/08 04:45:51;;;;;;;19.20;10.13;;;;;;;;;;5096954;28;20038;-60
2021/10/08 04:48:18;;;;;;;16.13;9.25;;;;;;;;;;5096758;28;20108;-61
2021/10/08 04:50:43;;;;;;;16.55;9.15;;;;;;;;;;5096724;28;20047;-60
2021/10/08 04:53:13;;;;;;;16.50;8.70;;;;;;;;;;5096755;28;20118;-60
2021/10/08 04:55:40;;;;;;;15.50;8.77;;;;;;;;;;5096769;28;20544;-60
2021/10/08 04:58:06;;;;;;;16.50;8.48;;;;;;;;;;5096622;28;20031;-60
2021/10/08 05:00:32;;;;;;;17.35;8.93;;;;;;;;;;5096963;28;20097;-60
2021/10/08 05:02:58;;;;;;;22.23;8.75;;;;;;;;;;5096584;28;20461;-60
2021/10/08 05:05:24;;;;;;;19.13;8.02;;;;;;;;;;5096510;28;20028;-61
2021/10/08 05:07:50;;;;;;;15.23;7.72;;;;;;;;;;5096329;28;20035;-61
2021/10/08 05:10:16;;;;;;;12.60;7.35;;;;;;;;;;5096659;28;20023;-61
2021/10/08 05:12:42;;;;;;;13.98;7.80;;;;;;;;;;5096270;28;20035;-60
2021/10/08 05:15:08;;;;;;;13.63;7.72;;;;;;;;;;5096354;28;20483;-60
2021/10/08 05:17:35;;;;;;;13.70;7.60;;;;;;;;;;5096052;28;20028;-60
2021/10/08 05:20:01;;;;;;;14.88;7.50;;;;;;;;;;5095988;28;20384;-60
2021/10/08 05:22:40;;;;;;;14.18;8.10;;;;;;;;;;5095940;28;20043;-60
2021/10/08 05:25:06;;;;;;;15.80;8.75;;;;;;;;;;5095939;28;20035;-60
2021/10/08 05:27:32;;;;;;;13.73;8.15;;;;;;;;;;5095930;28;20119;-60
2021/10/08 05:29:58;;;;;;;15.63;7.85;;;;;;;;;;5095266;28;20130;-60
2021/10/08 05:32:23;;;;;;;13.32;7.70;;;;;;;;;;5114159;28;20081;-60
2021/10/08 05:34:49;;;;;;;19.45;8.95;;;;;;;;;;5114269;28;20034;-60
2021/10/08 05:37:15;;;;;;;22.83;8.85;;;;;;;;;;5095776;28;20417;-60
2021/10/08 05:39:41;;;;;;;15.20;9.13;;;;;;;;;;5114036;28;20027;-60
2021/10/08 05:42:06;;;;;;;18.30;8.68;;;;;;;;;;5112561;28;20024;-60
2021/10/08 05:44:32;;;;;;;13.20;8.38;;;;;;;;;;5113814;27;20050;-61
2021/10/08 05:46:58;;;;;;;15.45;8.55;;;;;;;;;;5112498;28;20090;-60
2021/10/08 05:49:23;;;;;;;12.73;7.80;;;;;;;;;;5112371;28;20039;-60
2021/10/08 05:51:50;;;;;;;12.50;8.05;;;;;;;;;;5112474;28;20020;-60
2021/10/08 05:54:16;;;;;;;20.60;9.65;;;;;;;;;;5112462;28;20072;-60
2021/10/08 05:56:41;;;;;;;15.20;8.80;;;;;;;;;;5112415;28;20131;-60
2021/10/08 05:59:07;;;;;;;20.60;9.18;;;;;;;;;;5112288;28;20032;-60
2021/10/08 06:01:32;;;;;;;17.90;8.82;;;;;;;;;;5113571;28;20368;-60
2021/10/08 06:04:01;;;;;;;15.73;8.27;;;;;;;;;;5112278;28;20620;-60
2021/10/08 06:06:26;;;;;;;18.00;8.40;;;;;;;;;;5112201;28;20027;-60
2021/10/08 06:08:52;;;;;;;19.13;9.05;;;;;;;;;;5112352;28;20050;-60
2021/10/08 06:11:19;;;;;;;17.33;8.48;;;;;;;;;;5112334;28;20552;-60
2021/10/08 06:13:45;;;;;;;16.95;8.82;;;;;;;;;;5112163;28;20041;-60
2021/10/08 06:16:11;;;;;;;17.88;9.20;;;;;;;;;;5112217;28;20093;-60
2021/10/08 06:18:37;;;;;;;13.02;8.32;;;;;;;;;;5112209;28;20035;-59
2021/10/08 06:21:05;;;;;;;18.77;8.93;;;;;;;;;;5112242;28;20050;-59
2021/10/08 06:23:31;;;;;;;18.27;10.02;;;;;;;;;;5112271;28;20483;-59
2021/10/08 06:25:56;;;;;;;16.85;8.60;;;;;;;;;;5112198;28;20031;-59
2021/10/08 06:28:24;;;;;;;17.42;8.63;;;;;;;;;;5112137;28;20031;-59
2021/10/08 06:30:50;;;;;;;15.27;8.02;;;;;;;;;;5111990;28;20518;-59
2021/10/08 06:33:16;;;;;;;14.50;8.77;;;;;;;;;;5095040;28;20039;-59
2021/10/08 06:35:45;;;;;;;18.23;9.35;;;;;;;;;;5111916;28;20019;-59
2021/10/08 06:38:11;;;;;;;16.40;9.18;;;;;;;;;;5112163;28;20063;-61
2021/10/08 06:40:38;;;;;;;16.33;8.57;;;;;;;;;;5111988;28;20039;-60
2021/10/08 06:43:07;;;;;;;20.38;9.30;;;;;;;;;;5111969;28;20043;-60
2021/10/08 06:45:45;;;;;;;15.82;9.00;;;;;;;;;;5112014;28;20080;-61
2021/10/08 06:48:14;;;;;;;16.73;9.13;;;;;;;;;;5111927;28;20067;-60
2021/10/08 06:50:43;;;;;;;14.55;8.60;;;;;;;;;;5115526;28;20056;-60
2021/10/08 06:53:11;;;;;;;21.80;9.10;;;;;;;;;;5115836;28;20027;-61
2021/10/08 06:55:38;;;;;;;19.02;8.80;;;;;;;;;;5115822;28;20023;-61
2021/10/08 06:58:04;;;;;;;21.83;9.75;;;;;;;;;;5098787;28;20085;-60
2021/10/08 07:00:29;;;;;;;16.20;8.98;;;;;;;;;;5115660;28;20030;-60
2021/10/08 07:02:57;;;;;;;20.00;8.40;;;;;;;;;;5115591;28;20048;-60
2021/10/08 07:05:26;;;;;;;19.90;9.15;;;;;;;;;;5115595;28;20027;-60
2021/10/08 07:07:53;;;;;;;16.65;8.82;;;;;;;;;;5115521;28;20070;-61
2021/10/08 07:10:20;;;;;;;22.67;11.05;;;;;;;;;;5115439;28;20386;-60
2021/10/08 07:12:46;;;;;;;18.67;8.63;;;;;;;;;;5115372;28;20123;-60
2021/10/08 07:15:21;;;;;;;20.35;10.10;;;;;;;;;;5116637;28;20510;-60
2021/10/08 07:17:49;;;;;;;24.58;9.88;;;;;;;;;;5116825;28;20122;-60
2021/10/08 07:20:19;;;;;;;20.02;9.60;;;;;;;;;;5116750;28;20071;-60
2021/10/08 07:22:45;;;;;;;19.92;10.38;;;;;;;;;;5116712;28;20122;-61
2021/10/08 07:25:11;;;;;;;17.67;9.57;;;;;;;;;;5116464;28;20070;-60
2021/10/08 07:27:37;;;;;;;20.73;9.80;;;;;;;;;;5116989;28;20042;-61
2021/10/08 07:30:04;;;;;;;21.73;9.75;;;;;;;;;;5116110;28;20035;-61
2021/10/08 07:32:30;;;;;;;17.13;9.23;;;;;;;;;;5116727;28;20063;-60
2021/10/08 07:34:55;;;;;;;16.98;9.65;;;;;;;;;;5116746;28;20379;-61
2021/10/08 07:37:21;;;;;;;18.95;9.40;;;;;;;;;;5116706;28;20031;-60
2021/10/08 07:39:47;;;;;;;22.50;9.82;;;;;;;;;;5116472;27;20106;-60
2021/10/08 07:42:12;;;;;;;25.10;10.70;;;;;;;;;;5116150;28;20181;-60
2021/10/08 07:44:38;;;;;;;24.65;10.00;;;;;;;;;;5116198;28;20510;-60
2021/10/08 07:47:03;;;;;;;17.85;9.18;;;;;;;;;;5116016;27;20046;-61
2021/10/08 07:49:29;;;;;;;18.65;9.32;;;;;;;;;;5116058;28;20024;-61
2021/10/08 07:51:54;;;;;;;19.08;9.48;;;;;;;;;;5116093;28;20062;-61
2021/10/08 07:54:20;;;;;;;19.83;9.70;;;;;;;;;;5115837;28;20059;-60
2021/10/08 07:56:45;;;;;;;22.50;9.73;;;;;;;;;;5116079;28;20039;-61
2021/10/08 07:59:11;;;;;;;21.83;9.80;;;;;;;;;;5097603;28;20073;-61
2021/10/08 08:01:36;;;;;;;21.85;10.18;;;;;;;;;;5114442;28;20039;-60
2021/10/08 08:04:02;;;;;;;22.17;9.95;;;;;;;;;;5115811;28;20399;-60
2021/10/08 08:06:27;;;;;;;18.95;10.10;;;;;;;;;;5115818;28;20096;-60
2021/10/08 08:08:53;;;;;;;17.35;10.77;;;;;;;;;;5115909;28;20035;-61
2021/10/08 08:11:19;;;;;;;20.52;10.13;;;;;;;;;;5115679;28;20122;-61
2021/10/08 08:13:44;;;;;;;22.17;9.43;;;;;;;;;;5115529;28;20102;-61
2021/10/08 08:16:10;;;;;;;26.05;10.68;;;;;;;;;;5115623;28;20546;-61
2021/10/08 08:18:35;;;;;;;19.45;9.88;;;;;;;;;;5114178;28;20363;-61
2021/10/08 08:21:01;;;;;;;22.45;9.48;;;;;;;;;;5115530;28;20032;-61
2021/10/08 08:23:27;;;;;;;22.60;10.20;;;;;;;;;;5115395;28;20103;-61
2021/10/08 08:25:54;;;;;;;20.55;9.45;;;;;;;;;;5115417;28;20040;-60
2021/10/08 08:28:20;;;;;;;18.88;8.32;;;;;;;;;;5115274;28;20475;-60
2021/10/08 08:30:45;;;;;;;19.02;10.52;;;;;;;;;;5115001;28;20036;-60
2021/10/08 08:33:11;;;;;;;18.50;9.27;;;;;;;;;;5115394;28;20049;-61
2021/10/08 08:35:36;;;;;;;22.63;10.25;;;;;;;;;;5115351;28;20024;-61
2021/10/08 08:38:02;;;;;;;21.10;9.80;;;;;;;;;;5115146;28;20042;-61
2021/10/08 08:40:29;;;;;;;17.58;9.60;;;;;;;;;;5115057;28;20126;-60
2021/10/08 08:42:56;;;;;;;16.25;8.98;;;;;;;;;;5115020;28;20031;-60
2021/10/08 08:45:21;;;;;;;17.05;8.95;;;;;;;;;;5114929;28;20419;-61
2021/10/08 08:48:02;;;;;;;17.80;9.10;;;;;;;;;;5114997;28;20034;-60
2021/10/08 08:50:29;;;;;;;21.33;11.05;;;;;;;;;;5115289;28;20043;-60
2021/10/08 08:52:54;;;;;;;19.10;7.95;;;;;;;;;;5114828;28;20066;-60
2021/10/08 08:55:20;;;;;;;18.70;7.38;;;;;;;;;;5114879;28;20059;-60
2021/10/08 08:57:45;;;;;;;15.15;8.30;;;;;;;;;;5114708;28;20051;-60
2021/10/08 09:00:12;;;;;;;16.30;7.85;;;;;;;;;;5114684;28;20123;-61
2021/10/08 09:02:41;;;;;;;16.70;7.63;;;;;;;;;;5114759;28;20475;-61
2021/10/08 09:05:17;;;;;;;18.08;8.25;;;;;;;;;;5114691;28;20031;-60
2021/10/08 09:07:44;;;;;;;19.65;8.93;;;;;;;;;;5114103;28;20073;-61
2021/10/08 09:10:11;;;;;;;17.17;7.43;;;;;;;;;;5114623;28;20119;-60
2021/10/08 09:12:37;;;;;;;34.30;10.48;;;;;;;;;;5113577;28;20046;-61
2021/10/08 09:15:02;;;;;;;18.90;8.35;;;;;;;;;;5114721;28;20039;-61
2021/10/08 09:17:29;;;;;;;23.55;8.23;;;;;;;;;;5114495;28;20042;-60
2021/10/08 09:20:14;;;;;;;15.50;7.20;;;;;;;;;;5114512;28;20440;-60
2021/10/08 09:22:40;;;;;;;14.13;8.23;;;;;;;;;;5114459;28;20410;-60
2021/10/08 09:25:33;;;;;;;16.45;6.93;;;;;;;;;;5114265;28;20032;-60
2021/10/08 09:28:02;;;;;;;20.40;9.20;;;;;;;;;;5114471;28;20035;-61
2021/10/08 09:30:41;;;;;;;15.50;7.32;;;;;;;;;;5113483;28;20050;-61
2021/10/08 09:33:08;;;;;;;21.02;7.35;;;;;;;;;;5113671;28;20478;-61
2021/10/08 09:35:34;;;;;;;15.73;6.68;;;;;;;;;;5113424;28;20031;-61
2021/10/08 09:38:06;;;;;;;18.52;6.30;;;;;;;;;;5113588;28;20034;-61
2021/10/08 09:40:41;;;;;;;15.45;6.40;;;;;;;;;;5113248;28;20059;-60
2021/10/08 09:43:08;;;;;;;17.20;6.40;;;;;;;;;;5112911;28;20039;-61
2021/10/08 09:45:38;;;;;;;11.32;6.38;;;;;;;;;;5113411;28;20049;-60
2021/10/08 09:48:04;;;;;;;21.20;6.28;;;;;;;;;;5113155;28;20093;-61
2021/10/08 09:50:30;;;;;;;10.32;5.43;;;;;;;;;;5113018;28;20031;-61
2021/10/08 09:53:10;;;;;;;17.90;6.90;;;;;;;;;;5111624;28;20377;-61
2021/10/08 09:55:36;;;;;;;14.68;6.88;;;;;;;;;;5112948;28;20034;-61
2021/10/08 09:58:01;;;;;;;13.15;5.40;;;;;;;;;;5112953;28;20016;-61
2021/10/08 10:01:07;;;;;;;15.57;6.15;;;;;;;;;;5112843;28;20027;-62
2021/10/08 10:03:32;;;;;;;12.45;6.38;;;;;;;;;;5112562;28;20070;-61
2021/10/08 10:06:01;;;;;;;16.40;6.68;;;;;;;;;;5111606;28;20105;-60
2021/10/08 10:08:27;;;;;;;18.13;7.47;;;;;;;;;;5112844;28;20032;-61
2021/10/08 10:10:54;;;;;;;14.10;6.55;;;;;;;;;;5112740;28;20043;-61
2021/10/08 10:13:20;;;;;;;13.77;6.65;;;;;;;;;;5112650;28;20043;-61
2021/10/08 10:15:48;;;;;;;14.85;6.97;;;;;;;;;;5112686;28;20382;-61
2021/10/08 10:18:15;;;;;;;14.38;6.53;;;;;;;;;;5112657;28;20473;-61
2021/10/08 10:20:45;;;;;;;14.25;6.93;;;;;;;;;;5112630;28;20053;-61
2021/10/08 10:23:10;;;;;;;13.55;7.53;;;;;;;;;;5112690;28;20055;-61
2021/10/08 10:25:36;;;;;;;15.20;7.45;;;;;;;;;;5115850;28;20479;-61
2021/10/08 10:28:03;;;;;;;11.07;6.88;;;;;;;;;;5116186;28;20040;-61
2021/10/08 10:30:29;;;;;;;12.85;6.18;;;;;;;;;;5067656;28;1396025;-60
2021/10/08 10:32:55;;;;;;;16.58;7.22;;;;;;;;;;5117636;27;20119;-60
2021/10/08 10:35:39;;;;;;;15.65;7.40;;;;;;;;;;5117571;28;20032;-61
2021/10/08 10:38:31;;;;;;;13.05;7.60;;;;;;;;;;5117148;28;20044;-61
2021/10/08 10:41:23;;;;;;;14.82;8.38;;;;;;;;;;5114563;28;20040;-61
2021/10/08 10:43:53;;;;;;;7.47;5.97;;;;;;;;;;5114424;28;20122;-61
2021/10/08 10:46:19;;;;;;;17.60;9.32;;;;;;;;;;5117236;28;20043;-62
2021/10/08 10:49:10;;;;;;;18.95;8.95;;;;;;;;;;5117246;28;20029;-60
2021/10/08 10:51:36;;;;;;;14.93;7.25;;;;;;;;;;5117120;28;20043;-60
2021/10/08 10:54:01;;;;;;;18.23;7.57;;;;;;;;;;5117209;28;20115;-60
2021/10/08 10:56:36;;;;;;;15.38;6.78;;;;;;;;;;5117090;28;20028;-60
2021/10/08 10:59:20;;;;;;;16.63;7.68;;;;;;;;;;5117115;28;20031;-60
2021/10/08 11:02:08;;;;;;;16.55;8.35;;;;;;;;;;5116957;28;20043;-61
2021/10/08 11:04:37;;;;;;;13.98;7.68;;;;;;;;;;5117123;28;20441;-60
2021/10/08 11:07:02;;;;;;;17.38;8.07;;;;;;;;;;5116991;28;20447;-60
2021/10/08 11:09:27;;;;;;;19.35;8.35;;;;;;;;;;5116903;28;20036;-60
2021/10/08 11:12:12;;;;;;;11.20;7.03;;;;;;;;;;5115480;28;20028;-60
2021/10/08 11:14:38;;;;;;;17.10;8.43;;;;;;;;;;5116707;28;20040;-60
2021/10/08 11:17:39;;;;;;;17.70;7.10;;;;;;;;;;5116657;28;20050;-60
2021/10/08 11:20:05;;;;;;;16.02;9.48;;;;;;;;;;5053984;28;20128;-60
2021/10/08 11:22:45;;;;;;;17.27;8.40;;;;;;;;;;5103941;27;20032;-61
2021/10/08 11:25:12;;;;;;;17.27;7.70;;;;;;;;;;5116623;28;20422;-60
2021/10/08 11:27:38;;;;;;;17.55;8.75;;;;;;;;;;5116652;28;20042;-60
2021/10/08 11:30:04;;;;;;;10.48;6.75;;;;;;;;;;5114735;28;20044;-60
2021/10/08 11:32:33;;;;;;;15.25;7.80;;;;;;;;;;5116351;28;20433;-60
2021/10/08 11:34:58;;;;;;;13.80;8.18;;;;;;;;;;5116018;28;20032;-60
2021/10/08 11:37:28;;;;;;;16.40;8.25;;;;;;;;;;5115108;28;20501;-60
2021/10/08 11:39:55;;;;;;;15.10;8.57;;;;;;;;;;5116377;28;20039;-60
2021/10/08 11:42:22;;;;;;;17.38;8.40;;;;;;;;;;5116231;28;20092;-60
2021/10/08 11:52:30;;;;;;;15.30;7.53;;;;;;;;;;5116194;28;20036;-60
2021/10/08 11:55:14;;;;;;;14.45;7.80;;;;;;;;;;5115960;28;20048;-60
2021/10/08 11:57:46;;;;;;;14.55;6.28;;;;;;;;;;5115987;27;20084;-60
2021/10/08 12:00:11;;;;;;;11.30;7.20;;;;;;;;;;5116018;28;20108;-60
2021/10/08 12:02:38;;;;;;;11.45;7.07;;;;;;;;;;5115973;28;20023;-60
2021/10/08 12:05:07;;;;;;;12.13;7.55;;;;;;;;;;5115808;28;20043;-60
2021/10/08 12:07:37;;;;;;;14.07;7.53;;;;;;;;;;5115800;28;20042;-60
2021/10/08 12:10:13;;;;;;;12.50;7.13;;;;;;;;;;5115554;28;20124;-60
2021/10/08 12:12:51;;;;;;;15.02;9.63;;;;;;;;;;5115565;28;20034;-60
2021/10/08 12:15:20;;;;;;;15.40;7.30;;;;;;;;;;5115684;28;20039;-60
2021/10/08 12:17:50;;;;;;;16.30;7.47;;;;;;;;;;5115599;28;20088;-61
2021/10/08 12:20:34;;;;;;;10.63;6.57;;;;;;;;;;5114244;28;20047;-60
2021/10/08 12:23:15;;;;;;;15.68;7.90;;;;;;;;;;5115532;28;20042;-60
2021/10/08 12:25:41;;;;;;;18.15;6.90;;;;;;;;;;5115191;28;20040;-60
2021/10/08 12:28:08;;;;;;;14.00;7.18;;;;;;;;;;5115239;28;20031;-60
2021/10/08 12:30:47;;;;;;;13.10;6.18;;;;;;;;;;5115090;28;20047;-60
2021/10/08 12:33:21;;;;;;;11.27;7.05;;;;;;;;;;5115347;28;20044;-60
2021/10/08 12:36:07;;;;;;;9.98;5.57;;;;;;;;;;5115387;28;20084;-61
2021/10/08 12:38:53;;;;;;;12.98;7.18;;;;;;;;;;5115243;28;20066;-60
2021/10/08 12:41:24;;;;;;;11.35;5.57;;;;;;;;;;5114998;28;20039;-60
2021/10/08 12:44:00;;;;;;;10.65;5.70;;;;;;;;;;5115075;28;20085;-60
2021/10/08 12:46:33;;;;;;;9.63;5.72;;;;;;;;;;5114341;28;20040;-60
2021/10/08 12:48:59;;;;;;;17.42;6.35;;;;;;;;;;5115023;28;20035;-60
2021/10/08 12:51:24;;;;;;;10.35;6.35;;;;;;;;;;5114800;28;20444;-60
2021/10/08 12:54:09;;;;;;;17.75;6.18;;;;;;;;;;5115006;28;20043;-60
2021/10/08 12:56:35;;;;;;;13.02;6.40;;;;;;;;;;5115036;28;20118;-60
2021/10/08 12:59:00;;;;;;;18.05;6.30;;;;;;;;;;5114810;28;20054;-60
2021/10/08 13:01:26;;;;;;;10.98;5.30;;;;;;;;;;5114655;28;20464;-60
2021/10/08 13:03:51;;;;;;;13.27;6.03;;;;;;;;;;5114741;28;20068;-60
2021/10/08 13:06:17;;;;;;;8.60;5.28;;;;;;;;;;5113508;28;20149;-60
2021/10/08 13:09:00;;;;;;;9.20;5.60;;;;;;;;;;5114657;28;20031;-60
2021/10/08 13:11:34;;;;;;;15.30;5.88;;;;;;;;;;5114422;28;20057;-60
2021/10/08 13:13:59;;;;;;;9.57;4.50;;;;;;;;;;5114831;28;20035;-61
2021/10/08 13:16:32;;;;;;;6.63;4.68;;;;;;;;;;5114652;28;20467;-60
2021/10/08 13:18:58;;;;;;;9.95;5.07;;;;;;;;;;5114790;28;20055;-60
2021/10/08 13:21:24;;;;;;;11.68;5.00;;;;;;;;;;5114449;28;20024;-60
2021/10/08 13:23:51;;;;;;;12.43;5.50;;;;;;;;;;5114607;28;20426;-60
2021/10/08 13:26:17;;;;;;;10.48;5.63;;;;;;;;;;5113574;28;20463;-65
2021/10/08 13:28:43;;;;;;;12.52;6.00;;;;;;;;;;5113164;28;20070;-62
2021/10/08 13:31:09;;;;;;;9.85;5.10;;;;;;;;;;5113372;28;20066;-62
2021/10/08 13:33:35;;;;;;;13.30;5.55;;;;;;;;;;5113912;28;20123;-62
2021/10/08 13:36:01;;;;;;;12.35;5.13;;;;;;;;;;5114374;28;20028;-62
2021/10/08 13:38:27;;;;;;;12.40;5.20;;;;;;;;;;5113800;28;20023;-62
2021/10/08 13:40:53;;;;;;;7.25;4.75;;;;;;;;;;5112959;28;20036;-62
2021/10/08 13:43:19;;;;;;;9.40;5.32;;;;;;;;;;5112997;28;20039;-62
2021/10/08 13:45:45;;;;;;;10.68;5.60;;;;;;;;;;5114233;28;20027;-62
2021/10/08 13:48:12;;;;;;;11.98;5.53;;;;;;;;;;5114230;28;20127;-62
2021/10/08 13:50:37;;;;;;;10.32;6.00;;;;;;;;;;5114140;28;20400;-62
2021/10/08 13:53:06;;;;;;;7.93;4.78;;;;;;;;;;5113630;28;20032;-62
2021/10/08 13:55:36;;;;;;;12.15;5.82;;;;;;;;;;5114033;28;20035;-62
2021/10/08 13:58:07;;;;;;;11.02;5.00;;;;;;;;;;5114058;28;20080;-62
2021/10/08 14:00:33;;;;;;;10.52;5.15;;;;;;;;;;5107663;28;20028;-62
2021/10/08 14:03:03;;;;;;;7.47;3.45;;;;;;;;;;5110885;28;20032;-62
2021/10/08 14:05:36;;;;;;;;;;;;;;;;;;5110795;28;20039;-62
2021/10/08 14:10:30;;;;;;;11.90;5.13;;;;;;;;;;5107973;28;20050;-62
2021/10/08 14:12:56;;;;;;;30.00;12.85;;;;;;;;;;5091704;28;20044;-62
2021/10/08 14:15:22;;;;;;;15.60;6.25;;;;;;;;;;5108900;28;20119;-62
2021/10/08 14:17:48;;;;;;;25.50;13.20;;;;;;;;;;5109676;28;20039;-62
2021/10/08 14:20:14;;;;;;;15.75;9.00;;;;;;;;;;5107664;28;20036;-62
2021/10/08 14:22:40;;;;;;;21.92;11.63;;;;;;;;;;5108350;28;20052;-62
2021/10/08 14:25:06;;;;;;;13.27;5.57;;;;;;;;;;5108155;28;20042;-62
2021/10/08 14:27:35;;;;;;;17.58;6.63;;;;;;;;;;5108091;28;20542;-62
2021/10/08 14:30:08;;;;;;;9.85;5.85;;;;;;;;;;5107238;28;20052;-64
2021/10/08 14:32:34;;;;;;;11.38;6.70;;;;;;;;;;5107965;28;20102;-62
2021/10/08 14:35:03;;;;;;;9.02;5.03;;;;;;;;;;5108143;28;20028;-62
2021/10/08 14:37:29;;;;;;;20.50;6.28;;;;;;;;;;5108059;28;20115;-62
2021/10/08 14:39:54;;;;;;;21.92;10.60;;;;;;;;;;5107732;28;20155;-62
2021/10/08 14:42:19;;;;;;;19.33;7.97;;;;;;;;;;5089653;28;20043;-62
2021/10/08 14:44:45;;;;;;;31.77;16.10;;;;;;;;;;5108099;28;20027;-62
2021/10/08 14:47:11;;;;;;;30.40;14.20;;;;;;;;;;5108025;28;20399;-62